createdAt,value
2018-05-15T00:02:16.485Z,81.32
2018-05-15T00:04:45.310Z,81.32
2018-05-15T00:07:13.668Z,80.79
2018-05-15T00:09:41.988Z,80.82
2018-05-15T00:12:10.292Z,79.94
2018-05-15T00:14:38.573Z,79.58
2018-05-15T00:17:06.843Z,82.35
2018-05-15T00:19:35.167Z,82.59
2018-05-15T00:22:03.457Z,81.73
2018-05-15T00:24:31.762Z,81.54
2018-05-15T00:27:00.106Z,80.49
2018-05-15T00:29:28.424Z,80.38
2018-05-15T00:31:56.717Z,79.38
2018-05-15T00:34:24.999Z,78.99
2018-05-15T00:36:53.273Z,78.71
2018-05-15T00:39:21.569Z,77.90
2018-05-15T00:41:49.872Z,78.16
2018-05-15T00:44:18.274Z,78.44
2018-05-15T00:46:46.554Z,78.34
2018-05-15T00:49:14.799Z,78.34
2018-05-15T00:51:43.121Z,78.97
2018-05-15T00:54:11.432Z,79.31
2018-05-15T00:56:39.762Z,79.63
2018-05-15T00:59:08.035Z,79.73
2018-05-15T01:01:36.672Z,79.82
2018-05-15T01:04:05.030Z,80.54
2018-05-15T01:06:33.326Z,81.17
2018-05-15T01:09:01.642Z,81.41
2018-05-15T01:11:29.941Z,81.12
2018-05-15T01:13:58.235Z,80.68
2018-05-15T01:16:26.515Z,80.04
2018-05-15T01:18:54.879Z,80.21
2018-05-15T01:21:23.146Z,79.45
2018-05-15T01:23:51.459Z,79.48
2018-05-15T01:26:19.780Z,79.62
2018-05-15T01:28:48.101Z,79.62
2018-05-15T01:31:16.378Z,80.33
2018-05-15T01:33:44.737Z,80.53
2018-05-15T01:36:13.009Z,80.50
2018-05-15T01:38:41.271Z,79.87
2018-05-15T01:41:09.591Z,80.42
2018-05-15T01:43:37.888Z,80.32
2018-05-15T01:46:06.202Z,80.41
2018-05-15T01:48:35.363Z,80.25
2018-05-15T01:51:03.663Z,80.49
2018-05-15T01:53:31.954Z,80.49
2018-05-15T01:56:00.734Z,81.03
2018-05-15T01:58:29.040Z,81.27
2018-05-15T02:00:57.351Z,80.70
2018-05-15T02:03:25.723Z,80.25
2018-05-15T02:05:54.039Z,79.83
2018-05-15T02:08:22.519Z,79.72
2018-05-15T02:10:50.922Z,79.39
2018-05-15T02:13:20.141Z,79.02
2018-05-15T02:15:48.426Z,79.85
2018-05-15T02:18:16.704Z,80.18
2018-05-15T02:20:45.020Z,79.81
2018-05-15T02:23:13.371Z,80.60
2018-05-15T02:25:42.006Z,80.61
2018-05-15T02:28:11.288Z,80.01
2018-05-15T02:30:39.727Z,80.34
2018-05-15T02:33:08.006Z,80.98
2018-05-15T02:35:36.346Z,81.18
2018-05-15T02:38:05.010Z,81.92
2018-05-15T02:40:33.325Z,81.74
2018-05-15T02:43:01.652Z,80.70
2018-05-15T02:45:30.027Z,80.68
2018-05-15T02:47:58.310Z,79.79
2018-05-15T02:50:26.602Z,79.03
2018-05-15T02:52:54.898Z,78.51
2018-05-15T02:55:23.175Z,78.59
2018-05-15T02:57:51.560Z,78.25
2018-05-15T03:00:19.763Z,77.36
2018-05-15T03:02:48.115Z,77.42
2018-05-15T03:05:16.415Z,77.95
2018-05-15T03:07:44.695Z,78.23
2018-05-15T03:10:13.899Z,78.60
2018-05-15T03:12:42.177Z,78.09
2018-05-15T03:15:10.473Z,78.57
2018-05-15T03:17:38.751Z,78.25
2018-05-15T03:20:07.043Z,77.64
2018-05-15T03:22:35.329Z,77.42
2018-05-15T03:25:04.075Z,77.76
2018-05-15T03:27:32.366Z,77.94
2018-05-15T03:30:00.629Z,78.00
2018-05-15T03:32:29.636Z,77.85
2018-05-15T03:34:57.903Z,77.97
2018-05-15T03:37:26.174Z,77.71
2018-05-15T03:39:54.478Z,77.74
2018-05-15T03:42:22.754Z,77.49
2018-05-15T03:44:51.125Z,76.93
2018-05-15T03:47:19.394Z,76.89
2018-05-15T03:49:47.732Z,77.35
2018-05-15T03:52:15.989Z,77.40
2018-05-15T03:54:45.708Z,77.63
2018-05-15T03:57:13.971Z,77.65
2018-05-15T03:59:42.283Z,77.10
2018-05-15T04:02:22.312Z,77.07
2018-05-15T04:05:02.613Z,77.31
2018-05-15T04:07:42.689Z,76.97
2018-05-15T04:10:10.978Z,76.63
2018-05-15T04:12:40.170Z,77.16
2018-05-15T04:15:08.474Z,77.48
2018-05-15T04:17:36.745Z,77.58
2018-05-15T04:20:05.090Z,77.05
2018-05-15T04:22:33.367Z,76.64
2018-05-15T04:25:01.696Z,76.18
2018-05-15T04:27:29.975Z,76.01
2018-05-15T04:29:58.349Z,76.18
2018-05-15T04:32:26.663Z,75.89
2018-05-15T04:34:54.959Z,75.28
2018-05-15T04:37:23.275Z,74.64
2018-05-15T04:39:51.576Z,75.10
2018-05-15T04:42:19.851Z,75.39
2018-05-15T04:44:48.236Z,75.64
2018-05-15T04:47:16.499Z,75.72
2018-05-15T04:49:44.801Z,75.76
2018-05-15T04:52:13.117Z,75.95
2018-05-15T04:54:41.380Z,76.17
2018-05-15T04:57:10.415Z,76.20
2018-05-15T04:59:38.667Z,76.06
2018-05-15T05:02:07.190Z,75.92
2018-05-15T05:04:35.320Z,75.93
2018-05-15T05:07:03.612Z,76.36
2018-05-15T05:09:31.877Z,76.20
2018-05-15T05:12:00.270Z,76.00
2018-05-15T05:14:28.554Z,76.15
2018-05-15T05:16:57.045Z,75.64
2018-05-15T05:19:27.210Z,75.70
2018-05-15T05:21:56.913Z,75.94
2018-05-15T05:24:25.185Z,75.93
2018-05-15T05:26:53.513Z,76.38
2018-05-15T05:29:22.443Z,75.88
2018-05-15T05:31:51.355Z,75.73
2018-05-15T05:34:19.650Z,76.07
2018-05-15T05:36:47.999Z,75.97
2018-05-15T05:39:16.310Z,75.71
2018-05-15T05:41:44.581Z,75.91
2018-05-15T05:44:12.976Z,75.59
2018-05-15T05:46:41.163Z,75.72
2018-05-15T05:49:09.452Z,75.52
2018-05-15T05:51:38.827Z,74.64
2018-05-15T05:54:07.157Z,74.65
2018-05-15T05:56:35.486Z,74.62
2018-05-15T05:59:03.768Z,74.77
2018-05-15T06:01:32.030Z,74.11
2018-05-15T06:04:00.360Z,73.05
2018-05-15T06:06:28.673Z,71.94
2018-05-15T06:08:56.978Z,71.62
2018-05-15T06:11:25.236Z,72.06
2018-05-15T06:13:53.525Z,71.79
2018-05-15T06:16:21.794Z,72.28
2018-05-15T06:18:50.131Z,70.71
2018-05-15T06:21:18.430Z,68.59
2018-05-15T06:23:46.719Z,66.91
2018-05-15T06:26:15.044Z,67.34
2018-05-15T06:28:43.333Z,67.14
2018-05-15T06:31:11.618Z,66.53
2018-05-15T06:33:39.947Z,66.73
2018-05-15T06:36:08.245Z,66.41
2018-05-15T06:38:36.572Z,66.68
2018-05-15T06:41:05.696Z,66.33
2018-05-15T06:43:34.004Z,65.70
2018-05-15T06:46:02.313Z,66.12
2018-05-15T06:48:30.574Z,65.44
2018-05-15T06:50:58.883Z,65.21
2018-05-15T06:53:27.490Z,64.75
2018-05-15T06:55:55.794Z,64.10
2018-05-15T06:58:24.105Z,63.06
2018-05-15T07:00:52.454Z,63.64
2018-05-15T07:03:20.819Z,63.75
2018-05-15T07:05:49.113Z,63.28
2018-05-15T07:08:17.482Z,60.70
2018-05-15T07:10:45.763Z,60.13
2018-05-15T07:13:15.428Z,58.79
2018-05-15T07:15:46.778Z,58.35
2018-05-15T07:18:15.154Z,58.98
2018-05-15T07:20:43.447Z,58.69
2018-05-15T07:23:11.734Z,59.21
2018-05-15T07:25:40.265Z,60.63
2018-05-15T07:28:08.572Z,59.93
2018-05-15T07:30:36.853Z,60.12
2018-05-15T07:33:05.154Z,60.09
2018-05-15T07:35:33.455Z,59.95
2018-05-15T07:38:01.756Z,59.33
2018-05-15T07:40:30.123Z,58.63
2018-05-15T07:42:58.434Z,59.11
2018-05-15T07:45:26.712Z,59.25
2018-05-15T07:47:55.015Z,58.37
2018-05-15T07:50:23.296Z,57.00
2018-05-15T07:52:51.564Z,56.64
2018-05-15T07:55:19.898Z,56.77
2018-05-15T07:57:48.197Z,57.12
2018-05-15T08:00:16.505Z,56.67
2018-05-15T08:02:44.834Z,54.89
2018-05-15T08:05:13.152Z,55.14
2018-05-15T08:07:41.644Z,55.22
2018-05-15T08:10:10.636Z,55.10
2018-05-15T08:12:38.908Z,55.60
2018-05-15T08:15:07.197Z,55.26
2018-05-15T08:17:35.546Z,54.56
2018-05-15T08:20:03.854Z,54.87
2018-05-15T08:22:32.136Z,54.02
2018-05-15T08:25:02.267Z,53.90
2018-05-15T08:27:30.503Z,53.59
2018-05-15T08:29:58.846Z,52.10
2018-05-15T08:32:27.110Z,52.92
2018-05-15T08:34:55.412Z,53.23
2018-05-15T08:37:23.772Z,52.97
2018-05-15T08:39:54.990Z,52.73
2018-05-15T08:42:23.311Z,52.50
2018-05-15T08:44:51.610Z,51.69
2018-05-15T08:47:19.997Z,50.89
2018-05-15T08:49:48.283Z,52.12
2018-05-15T08:52:16.556Z,51.71
2018-05-15T08:54:44.895Z,52.04
2018-05-15T08:57:13.230Z,51.82
2018-05-15T08:59:41.557Z,51.07
2018-05-15T09:02:09.875Z,51.87
2018-05-15T09:04:38.207Z,51.87
2018-05-15T09:07:06.493Z,51.84
2018-05-15T09:09:35.133Z,51.15
2018-05-15T09:12:04.400Z,51.44
2018-05-15T09:14:32.669Z,52.31
2018-05-15T09:17:00.963Z,51.89
2018-05-15T09:19:29.265Z,52.23
2018-05-15T09:21:57.614Z,52.15
2018-05-15T09:24:26.012Z,51.46
2018-05-15T09:26:54.416Z,51.27
2018-05-15T09:29:22.823Z,52.12
2018-05-15T09:31:51.125Z,51.72
2018-05-15T09:34:19.384Z,52.42
2018-05-15T09:36:47.775Z,51.67
2018-05-15T09:39:17.083Z,52.15
2018-05-15T09:41:46.407Z,52.47
2018-05-15T09:44:14.766Z,52.44
2018-05-15T09:46:43.120Z,52.58
2018-05-15T09:49:12.494Z,52.05
2018-05-15T09:51:40.791Z,51.81
2018-05-15T09:54:09.200Z,51.51
2018-05-15T09:56:38.196Z,50.38
2018-05-15T09:59:06.531Z,49.21
2018-05-15T10:01:35.647Z,48.38
2018-05-15T10:04:04.052Z,48.91
2018-05-15T10:06:32.593Z,49.00
2018-05-15T10:09:00.838Z,47.81
2018-05-15T10:11:29.822Z,47.59
2018-05-15T10:13:58.127Z,45.74
2018-05-15T10:16:26.795Z,45.62
2018-05-15T10:18:55.162Z,46.81
2018-05-15T10:21:23.442Z,47.53
2018-05-15T10:23:51.768Z,46.67
2018-05-15T10:26:20.141Z,46.21
2018-05-15T10:28:48.454Z,45.95
2018-05-15T10:31:16.729Z,45.16
2018-05-15T10:33:45.038Z,44.46
2018-05-15T10:36:13.342Z,43.89
2018-05-15T10:38:41.717Z,43.66
2018-05-15T10:41:10.363Z,43.89
2018-05-15T10:43:38.837Z,43.84
2018-05-15T10:46:07.116Z,43.77
2018-05-15T10:48:35.407Z,43.51
2018-05-15T10:51:03.777Z,44.52
2018-05-15T10:53:32.106Z,44.15
2018-05-15T10:56:00.416Z,43.98
2018-05-15T10:58:29.021Z,43.69
2018-05-15T11:00:57.344Z,42.02
2018-05-15T11:03:25.606Z,42.61
2018-05-15T11:05:53.967Z,41.74
2018-05-15T11:08:22.286Z,42.51
2018-05-15T11:10:50.706Z,41.68
2018-05-15T11:13:18.975Z,42.37
2018-05-15T11:15:47.266Z,42.88
2018-05-15T11:18:27.363Z,43.01
2018-05-15T11:21:07.934Z,43.11
2018-05-15T11:23:48.197Z,43.48
2018-05-15T11:26:16.529Z,42.58
2018-05-15T11:28:45.144Z,41.09
2018-05-15T11:31:13.944Z,40.96
2018-05-15T11:33:42.273Z,40.98
2018-05-15T11:36:11.656Z,40.85
2018-05-15T11:38:42.797Z,41.09
2018-05-15T11:41:11.560Z,41.38
2018-05-15T11:43:40.172Z,40.04
2018-05-15T11:46:08.550Z,40.92
2018-05-15T11:48:37.211Z,40.72
2018-05-15T11:51:06.492Z,40.21
2018-05-15T11:53:34.500Z,40.37
2018-05-15T11:56:02.958Z,39.80
2018-05-15T11:58:31.585Z,39.59
2018-05-15T12:01:00.034Z,38.42
2018-05-15T12:03:28.320Z,38.40
2018-05-15T12:05:56.617Z,38.70
2018-05-15T12:08:24.971Z,37.68
2018-05-15T12:10:53.228Z,38.20
2018-05-15T12:13:22.931Z,37.48
2018-05-15T12:15:51.270Z,36.81
2018-05-15T12:18:19.921Z,36.37
2018-05-15T12:20:48.527Z,36.35
2018-05-15T12:23:16.850Z,37.06
2018-05-15T12:25:45.114Z,36.86
2018-05-15T12:28:14.707Z,36.79
2018-05-15T12:30:44.039Z,37.00
2018-05-15T12:33:12.443Z,36.39
2018-05-15T12:35:40.721Z,36.97
2018-05-15T12:38:09.021Z,36.85
2018-05-15T12:40:37.329Z,36.97
2018-05-15T12:43:05.614Z,35.50
2018-05-15T12:45:33.932Z,33.10
2018-05-15T12:48:02.265Z,34.14
2018-05-15T12:50:30.660Z,33.96
2018-05-15T12:52:58.923Z,34.12
2018-05-15T12:55:27.214Z,35.17
2018-05-15T12:57:55.587Z,35.25
2018-05-15T13:00:24.174Z,34.95
2018-05-15T13:02:52.503Z,34.32
2018-05-15T13:05:20.953Z,34.68
2018-05-15T13:07:49.270Z,34.81
2018-05-15T13:10:17.621Z,34.52
2018-05-15T13:12:45.961Z,34.16
2018-05-15T13:15:14.346Z,34.49
2018-05-15T13:17:42.729Z,34.64
2018-05-15T13:20:11.053Z,34.17
2018-05-15T13:22:39.333Z,34.17
2018-05-15T13:25:07.642Z,35.23
2018-05-15T13:27:35.917Z,34.54
2018-05-15T13:30:04.911Z,34.55
2018-05-15T13:32:33.292Z,33.73
2018-05-15T13:35:01.721Z,33.21
2018-05-15T13:37:30.030Z,33.12
2018-05-15T13:39:58.326Z,33.30
2018-05-15T13:42:26.602Z,33.12
2018-05-15T13:44:54.895Z,34.59
2018-05-15T13:47:23.254Z,34.12
2018-05-15T13:49:51.603Z,34.96
2018-05-15T13:52:19.934Z,34.25
2018-05-15T13:54:48.353Z,35.61
2018-05-15T13:57:16.616Z,37.10
2018-05-15T13:59:44.921Z,35.72
2018-05-15T14:02:13.288Z,35.76
2018-05-15T14:04:41.579Z,35.69
2018-05-15T14:07:10.800Z,35.32
2018-05-15T14:09:39.151Z,35.71
2018-05-15T14:12:07.683Z,35.47
2018-05-15T14:14:36.162Z,35.48
2018-05-15T14:17:05.056Z,33.95
2018-05-15T14:19:33.357Z,33.94
2018-05-15T14:22:01.715Z,33.90
2018-05-15T14:24:31.252Z,34.49
2018-05-15T14:26:59.582Z,34.02
2018-05-15T14:29:28.239Z,33.43
2018-05-15T14:31:56.587Z,33.96
2018-05-15T14:34:24.892Z,34.04
2018-05-15T14:36:53.185Z,34.44
2018-05-15T14:39:21.617Z,35.17
2018-05-15T14:42:01.553Z,35.81
2018-05-15T14:44:29.859Z,36.03
2018-05-15T14:46:58.158Z,36.60
2018-05-15T14:49:26.568Z,36.71
2018-05-15T14:51:54.849Z,36.65
2018-05-15T14:54:23.435Z,37.02
2018-05-15T14:56:51.806Z,35.22
2018-05-15T14:59:20.110Z,35.08
2018-05-15T15:01:48.399Z,34.49
2018-05-15T15:04:16.719Z,34.33
2018-05-15T15:06:45.081Z,34.83
2018-05-15T15:09:13.394Z,35.46
2018-05-15T15:11:42.202Z,35.34
2018-05-15T15:14:10.810Z,34.72
2018-05-15T15:16:39.079Z,33.69
2018-05-15T15:19:07.350Z,32.94
2018-05-15T15:21:35.704Z,32.74
2018-05-15T15:24:04.353Z,31.96
2018-05-15T15:26:32.662Z,29.75
2018-05-15T15:29:00.941Z,30.25
2018-05-15T15:31:29.246Z,28.08
2018-05-15T15:33:57.515Z,27.55
2018-05-15T15:36:26.654Z,28.36
2018-05-15T15:38:54.958Z,29.34
2018-05-15T15:41:23.263Z,31.24
2018-05-15T15:43:51.565Z,31.91
2018-05-15T15:46:19.923Z,32.71
2018-05-15T15:48:48.923Z,33.21
2018-05-15T15:51:17.255Z,33.98
2018-05-15T15:53:45.587Z,33.51
2018-05-15T15:56:13.908Z,33.63
2018-05-15T15:58:42.243Z,32.66
2018-05-15T16:01:10.526Z,33.62
2018-05-15T16:03:38.813Z,33.08
2018-05-15T16:06:07.234Z,33.11
2018-05-15T16:08:35.525Z,32.64
2018-05-15T16:11:04.462Z,32.32
2018-05-15T16:13:32.770Z,32.98
2018-05-15T16:16:01.057Z,33.25
2018-05-15T16:18:29.355Z,33.29
2018-05-15T16:20:57.629Z,32.72
2018-05-15T16:23:25.930Z,32.64
2018-05-15T16:25:54.621Z,32.89
2018-05-15T16:28:23.196Z,32.41
2018-05-15T16:30:51.473Z,31.64
2018-05-15T16:33:25.285Z,31.49
2018-05-15T16:35:54.381Z,31.16
2018-05-15T16:38:24.353Z,31.34
2018-05-15T16:40:53.316Z,31.08
2018-05-15T16:43:21.747Z,32.44
2018-05-15T16:45:50.772Z,32.37
2018-05-15T16:48:19.156Z,31.08
2018-05-15T16:50:47.419Z,30.88
2018-05-15T16:53:15.763Z,31.54
2018-05-15T16:55:44.058Z,31.91
2018-05-15T16:58:12.385Z,32.61
2018-05-15T17:00:40.688Z,33.05
2018-05-15T17:03:10.193Z,33.35
2018-05-15T17:05:38.527Z,33.94
2018-05-15T17:08:06.876Z,35.29
2018-05-15T17:10:35.194Z,35.85
2018-05-15T17:13:03.437Z,36.19
2018-05-15T17:15:32.644Z,36.05
2018-05-15T17:18:00.879Z,36.08
2018-05-15T17:20:29.221Z,35.98
2018-05-15T17:22:57.498Z,36.01
2018-05-15T17:25:25.896Z,35.77
2018-05-15T17:27:54.091Z,36.23
2018-05-15T17:30:22.476Z,36.58
2018-05-15T17:32:50.811Z,36.83
2018-05-15T17:35:19.099Z,37.31
2018-05-15T17:37:47.359Z,37.48
2018-05-15T17:40:15.724Z,37.39
2018-05-15T17:42:44.031Z,37.64
2018-05-15T17:45:12.423Z,37.80
2018-05-15T17:47:40.686Z,37.91
2018-05-15T17:50:09.000Z,38.03
2018-05-15T17:52:37.311Z,37.83
2018-05-15T17:55:05.581Z,37.56
2018-05-15T17:57:33.888Z,37.61
2018-05-15T18:00:02.292Z,37.92
2018-05-15T18:02:30.575Z,37.73
2018-05-15T18:04:58.892Z,37.92
2018-05-15T18:07:27.228Z,37.68
2018-05-15T18:09:55.496Z,37.69
2018-05-15T18:12:23.789Z,37.84
2018-05-15T18:14:52.136Z,38.30
2018-05-15T18:17:20.482Z,38.57
2018-05-15T18:19:49.367Z,38.33
2018-05-15T18:22:17.667Z,38.59
2018-05-15T18:24:46.029Z,38.77
2018-05-15T18:27:15.028Z,38.74
2018-05-15T18:29:43.298Z,38.68
2018-05-15T18:32:11.994Z,38.79
2018-05-15T18:34:40.609Z,38.72
2018-05-15T18:37:09.793Z,39.02
2018-05-15T18:39:38.141Z,38.80
2018-05-15T18:42:06.416Z,39.17
2018-05-15T18:44:34.756Z,39.18
2018-05-15T18:47:03.083Z,39.42
2018-05-15T18:49:31.608Z,39.54
2018-05-15T18:51:59.963Z,39.47
2018-05-15T18:54:28.338Z,39.60
2018-05-15T18:56:56.683Z,39.84
2018-05-15T18:59:24.973Z,40.08
2018-05-15T19:01:54.132Z,40.10
2018-05-15T19:04:22.463Z,40.14
2018-05-15T19:06:50.857Z,40.26
2018-05-15T19:09:19.125Z,40.40
2018-05-15T19:11:47.440Z,40.80
2018-05-15T19:14:15.766Z,40.87
2018-05-15T19:16:44.032Z,40.76
2018-05-15T19:19:12.427Z,40.93
2018-05-15T19:21:40.688Z,41.29
2018-05-15T19:24:09.011Z,41.42
2018-05-15T19:26:37.361Z,42.03
2018-05-15T19:29:05.681Z,42.99
2018-05-15T19:31:37.826Z,43.68
2018-05-15T19:34:11.862Z,43.97
2018-05-15T19:36:45.778Z,44.50
2018-05-15T19:39:14.244Z,45.00
2018-05-15T19:41:42.480Z,45.40
2018-05-15T19:44:10.828Z,46.34
2018-05-15T19:46:39.129Z,47.23
2018-05-15T19:49:07.408Z,47.19
2018-05-15T19:51:35.733Z,46.40
2018-05-15T19:54:05.060Z,47.85
2018-05-15T19:56:33.750Z,48.74
2018-05-15T19:59:02.013Z,48.65
2018-05-15T20:01:31.133Z,48.98
2018-05-15T20:03:59.427Z,49.09
2018-05-15T20:06:27.880Z,49.26
2018-05-15T20:08:56.144Z,49.14
2018-05-15T20:11:24.704Z,48.37
2018-05-15T20:13:52.983Z,48.51
2018-05-15T20:16:21.293Z,48.50
2018-05-15T20:18:49.572Z,48.52
2018-05-15T20:21:17.890Z,48.32
2018-05-15T20:23:46.249Z,48.10
2018-05-15T20:26:14.520Z,48.21
2018-05-15T20:28:42.818Z,48.42
2018-05-15T20:31:11.130Z,48.50
2018-05-15T20:33:39.404Z,48.69
2018-05-15T20:36:08.615Z,49.00
2018-05-15T20:38:36.896Z,49.11
2018-05-15T20:41:05.183Z,49.10
2018-05-15T20:43:33.531Z,49.74
2018-05-15T20:46:01.789Z,49.43
2018-05-15T20:48:30.580Z,56.98
2018-05-15T20:50:58.847Z,63.26
2018-05-15T20:53:27.126Z,58.24
2018-05-15T20:55:56.444Z,55.99
2018-05-15T20:58:24.797Z,55.41
2018-05-15T21:00:53.659Z,53.65
2018-05-15T21:03:21.986Z,47.11
2018-05-15T21:05:50.279Z,47.04
2018-05-15T21:08:18.583Z,48.08
2018-05-15T21:10:46.944Z,48.93
2018-05-15T21:13:15.233Z,49.41
2018-05-15T21:15:43.556Z,49.68
2018-05-15T21:18:11.905Z,49.88
2018-05-15T21:20:40.175Z,50.01
2018-05-15T21:23:08.485Z,49.89
2018-05-15T21:25:36.844Z,49.98
2018-05-15T21:28:05.189Z,50.03
2018-05-15T21:30:33.543Z,50.37
2018-05-15T21:33:01.829Z,50.31
2018-05-15T21:35:30.115Z,50.68
2018-05-15T21:37:58.377Z,50.90
2018-05-15T21:40:26.683Z,51.20
2018-05-15T21:42:54.946Z,51.45
2018-05-15T21:45:23.264Z,51.83
2018-05-15T21:47:51.693Z,51.56
2018-05-15T21:50:19.981Z,51.29
2018-05-15T21:52:48.310Z,51.19
2018-05-15T21:55:16.550Z,51.17
2018-05-15T21:57:44.802Z,51.24
2018-05-15T22:00:13.114Z,51.43
2018-05-15T22:02:41.437Z,52.00
2018-05-15T22:05:11.260Z,53.52
2018-05-15T22:07:40.077Z,53.97
2018-05-15T22:10:09.136Z,54.79
2018-05-15T22:12:49.198Z,55.14
2018-05-15T22:15:29.142Z,54.99
2018-05-15T22:18:09.204Z,54.94
2018-05-15T22:20:49.402Z,55.01
2018-05-15T22:23:17.116Z,55.04
2018-05-15T22:25:45.491Z,54.60
2018-05-15T22:28:13.874Z,54.11
2018-05-15T22:30:42.150Z,54.08
2018-05-15T22:33:10.454Z,53.56
2018-05-15T22:35:38.733Z,53.26
2018-05-15T22:38:07.023Z,53.08
2018-05-15T22:40:35.282Z,53.31
2018-05-15T22:43:03.608Z,53.49
2018-05-15T22:45:31.866Z,53.57
2018-05-15T22:48:00.123Z,53.94
2018-05-15T22:50:28.397Z,54.16
2018-05-15T22:52:56.663Z,54.76
2018-05-15T22:55:24.973Z,55.61
2018-05-15T22:57:53.250Z,55.41
2018-05-15T23:00:21.549Z,54.82
2018-05-15T23:02:49.936Z,54.73
2018-05-15T23:05:18.207Z,54.56
2018-05-15T23:07:47.239Z,54.60
2018-05-15T23:10:15.563Z,55.01
2018-05-15T23:12:43.856Z,54.85
2018-05-15T23:15:12.143Z,54.70
2018-05-15T23:17:40.420Z,55.66
2018-05-15T23:20:08.698Z,56.79
2018-05-15T23:22:43.856Z,56.41
2018-05-15T23:25:12.171Z,56.14
2018-05-15T23:27:40.487Z,55.75
2018-05-15T23:30:09.576Z,55.70
2018-05-15T23:32:37.962Z,55.92
2018-05-15T23:35:06.243Z,56.29
2018-05-15T23:37:34.542Z,56.22
2018-05-15T23:40:02.827Z,56.54
2018-05-15T23:42:31.146Z,57.08
2018-05-15T23:44:59.676Z,57.41
2018-05-15T23:47:27.987Z,57.98
2018-05-15T23:49:56.235Z,58.65
2018-05-15T23:52:31.849Z,58.71
2018-05-15T23:55:00.088Z,58.76
2018-05-15T23:57:28.436Z,59.17
2018-05-15T23:59:56.772Z,59.97
